Time;durP1;ratioP1;P1;durP2;ratioP2;P2;SDS_P1;SDS_P2;PMS_P1;PMS_P2;Temp;Humidity;BMP_temperature;BMP_pressure;BME280_temperature;BME280_humidity;BME280_pressure;Samples;Min_cycle;Max_cycle;Signal;HPM_P1;HPM_P2
2022/06/02 00:00:22;;;;;;;0.30;0.20;;;;;;;11.45;83.78;100456.22;4995371;28;20585;-74
2022/06/02 00:03:10;;;;;;;0.30;0.20;;;;;;;11.63;82.68;100454.78;5012803;28;20468;-74
2022/06/02 00:05:51;;;;;;;0.30;0.20;;;;;;;11.72;81.74;100451.84;5012799;28;20457;-73
2022/06/02 00:08:53;;;;;;;0.40;0.30;;;;;;;11.65;82.02;100457.41;5000514;28;20449;-73
2022/06/02 00:11:23;;;;;;;0.30;0.20;;;;;;;11.23;83.34;100453.28;4995111;28;20444;-74
2022/06/02 00:13:58;;;;;;;0.63;0.63;;;;;;;11.10;83.82;100467.00;5012562;28;20473;-74
2022/06/02 00:16:43;;;;;;;0.30;0.20;;;;;;;10.85;84.67;100462.38;5000395;28;20521;-73
2022/06/02 00:19:41;;;;;;;0.30;0.20;;;;;;;10.79;84.39;100462.50;5012476;28;20504;-73
2022/06/02 00:22:16;;;;;;;0.40;0.20;;;;;;;10.94;84.12;100463.88;5012233;28;20477;-73
2022/06/02 00:24:57;;;;;;;0.30;0.20;;;;;;;10.97;83.96;100458.50;5012478;28;20494;-73
2022/06/02 00:27:47;;;;;;;0.30;0.20;;;;;;;10.96;85.05;100465.63;5012476;28;20452;-73
2022/06/02 00:30:21;;;;;;;0.30;0.20;;;;;;;11.09;84.96;100471.44;5012224;28;20922;-74
2022/06/02 00:33:03;;;;;;;0.30;0.20;;;;;;;11.22;85.18;100464.84;5012542;28;20886;-73
2022/06/02 00:36:00;;;;;;;0.30;0.20;;;;;;;11.28;84.98;100463.84;5012362;28;20810;-73
2022/06/02 00:38:32;;;;;;;0.30;0.20;;;;;;;11.18;84.42;100473.84;4991902;28;20448;-73
2022/06/02 00:41:16;;;;;;;0.30;0.20;;;;;;;11.32;84.13;100476.13;4995190;28;20452;-73
2022/06/02 00:44:06;;;;;;;0.30;0.20;;;;;;;11.02;84.66;100469.88;5012144;28;20894;-73
2022/06/02 00:46:33;;;;;;;0.30;0.20;;;;;;;10.85;85.13;100486.31;4994761;28;20488;-73
2022/06/02 00:49:16;;;;;;;1.40;1.30;;;;;;;10.83;85.43;100487.25;5012180;28;20471;-73
2022/06/02 00:52:20;;;;;;;0.30;0.20;;;;;;;10.54;86.47;100486.19;5012071;28;20440;-73
2022/06/02 00:58:22;;;;;;;0.30;0.20;;;;;;;10.43;86.84;100480.31;5012051;28;20543;-73
2022/06/02 01:01:09;;;;;;;0.30;0.20;;;;;;;10.46;87.44;100489.97;5015948;28;21001;-73
2022/06/02 01:03:43;;;;;;;0.30;0.20;;;;;;;10.32;86.53;100483.22;5016542;28;20557;-73
2022/06/02 01:06:10;;;;;;;0.30;0.20;;;;;;;10.10;88.75;100493.44;4998807;28;20449;-73
2022/06/02 01:09:02;;;;;;;0.30;0.20;;;;;;;10.33;87.83;100490.28;4998765;28;20502;-73
2022/06/02 01:11:52;;;;;;;0.30;0.20;;;;;;;10.35;87.18;100482.28;5004749;28;20445;-73
2022/06/02 01:14:28;;;;;;;0.30;0.20;;;;;;;10.54;85.84;100491.50;5015903;28;20506;-73
2022/06/02 01:17:07;;;;;;;0.43;0.43;;;;;;;10.46;86.89;100497.97;5016089;28;20502;-73
2022/06/02 01:20:04;;;;;;;0.30;0.20;;;;;;;9.92;87.87;100501.84;5004283;28;20488;-73
2022/06/02 01:22:58;;;;;;;0.40;0.30;;;;;;;9.97;88.42;100504.38;4998608;28;20537;-73
2022/06/02 01:25:25;;;;;;;0.30;0.20;;;;;;;9.81;89.22;100503.84;5016004;28;20465;-73
2022/06/02 01:28:16;;;;;;;0.40;0.20;;;;;;;9.89;87.38;100504.56;5016173;28;20456;-73
2022/06/02 01:30:59;;;;;;;0.40;0.40;;;;;;;9.96;87.68;100506.16;5015470;28;20937;-73
2022/06/02 01:33:40;;;;;;;0.30;0.20;;;;;;;10.13;87.62;100510.22;5015826;28;20561;-73
2022/06/02 01:36:23;;;;;;;0.30;0.20;;;;;;;10.18;87.66;100518.97;5015751;28;20947;-73
2022/06/02 01:39:04;;;;;;;0.30;0.20;;;;;;;10.01;87.72;100503.44;5015469;28;20509;-73
2022/06/02 01:41:43;;;;;;;0.30;0.20;;;;;;;9.93;87.29;100516.88;5015494;28;20488;-73
2022/06/02 01:44:39;;;;;;;0.30;0.20;;;;;;;9.93;88.17;100522.16;5015778;28;20440;-73
2022/06/02 01:47:26;;;;;;;0.30;0.20;;;;;;;9.36;90.73;100517.19;5003535;28;20444;-73
2022/06/02 01:50:19;;;;;;;0.40;0.40;;;;;;;9.53;90.14;100522.16;5015770;28;20475;-73
2022/06/02 01:53:12;;;;;;;0.30;0.20;;;;;;;9.48;90.38;100521.38;5015360;28;20464;-73
2022/06/02 01:56:24;;;;;;;1.47;1.37;;;;;;;9.45;89.46;100522.28;5015364;28;20452;-73
2022/06/02 01:59:11;;;;;;;0.50;0.50;;;;;;;9.56;89.68;100523.84;5015554;28;20506;-73
2022/06/02 02:02:00;;;;;;;3.50;1.50;;;;;;;9.33;89.63;100522.56;5002970;28;20455;-73
2022/06/02 02:04:27;;;;;;;0.30;0.20;;;;;;;9.28;90.30;100526.19;5015935;28;20455;-72
2022/06/02 02:07:02;;;;;;;0.30;0.20;;;;;;;9.29;90.39;100522.63;5016263;28;20871;-73
2022/06/02 02:09:45;;;;;;;0.30;0.20;;;;;;;9.42;88.62;100532.97;5015772;28;20444;-73
2022/06/02 02:12:50;;;;;;;0.30;0.20;;;;;;;9.43;89.11;100528.53;5014272;28;20463;-73
2022/06/02 02:15:27;;;;;;;0.30;0.20;;;;;;;9.62;88.43;100537.03;4986932;28;20449;-72
2022/06/02 02:18:07;;;;;;;0.30;0.20;;;;;;;9.28;87.31;100532.38;5002749;28;20476;-72
2022/06/02 02:21:09;;;;;;;0.30;0.20;;;;;;;8.95;90.88;100536.53;5014759;28;20554;-73
2022/06/02 02:23:58;;;;;;;0.30;0.20;;;;;;;8.84;91.68;100541.16;5015007;28;20518;-73
2022/06/02 02:26:33;;;;;;;0.30;0.20;;;;;;;8.86;91.45;100542.00;5014963;28;20499;-72
2022/06/02 02:29:44;;;;;;;0.30;0.20;;;;;;;8.75;92.68;100554.56;5013672;28;20535;-73
2022/06/02 02:32:26;;;;;;;0.30;0.30;;;;;;;8.92;91.43;100552.50;5014840;28;20526;-73
2022/06/02 02:35:02;;;;;;;0.30;0.20;;;;;;;9.08;90.78;100559.28;5014595;28;20448;-73
2022/06/02 02:37:54;;;;;;;0.30;0.20;;;;;;;8.69;91.55;100565.25;5014539;28;20826;-73
2022/06/02 02:40:45;;;;;;;0.30;0.20;;;;;;;8.72;93.24;100557.25;5014571;28;20488;-73
2022/06/02 02:43:39;;;;;;;0.30;0.20;;;;;;;8.59;93.02;100562.75;4996760;28;20503;-74
2022/06/02 02:46:18;;;;;;;0.30;0.20;;;;;;;8.72;92.87;100562.56;5015290;28;20444;-73
2022/06/02 02:49:10;;;;;;;0.30;0.20;;;;;;;8.57;94.70;100553.97;5003271;28;20967;-73
2022/06/02 02:51:43;;;;;;;0.30;0.20;;;;;;;8.73;94.05;100551.94;5014707;28;20448;-73
2022/06/02 02:54:21;;;;;;;0.30;0.20;;;;;;;8.98;93.21;100557.69;5014171;28;20445;-73
2022/06/02 02:56:55;;;;;;;0.30;0.20;;;;;;;9.18;91.39;100554.66;5001926;28;20770;-73
2022/06/02 02:59:27;;;;;;;0.30;0.20;;;;;;;9.23;91.43;100560.78;5014215;28;20993;-73
2022/06/02 03:02:12;;;;;;;0.30;0.20;;;;;;;8.93;91.59;100558.69;5014101;28;20568;-73
2022/06/02 03:05:16;;;;;;;0.30;0.20;;;;;;;9.10;91.62;100557.47;5014036;28;20835;-73
2022/06/02 03:07:43;;;;;;;0.30;0.20;;;;;;;9.01;90.21;100560.28;5014204;28;20568;-73
2022/06/02 03:10:29;;;;;;;0.73;0.70;;;;;;;8.96;90.88;100567.44;5014503;28;20925;-73
2022/06/02 03:13:33;;;;;;;0.73;0.73;;;;;;;8.76;91.36;100569.53;5014153;28;20515;-73
2022/06/02 03:16:09;;;;;;;0.30;0.20;;;;;;;8.58;92.72;100571.59;5014359;28;20470;-74
2022/06/02 03:19:04;;;;;;;0.30;0.20;;;;;;;8.60;91.94;100567.16;5015070;28;20487;-73
2022/06/02 03:21:48;;;;;;;0.30;0.20;;;;;;;8.66;92.87;100573.28;5004726;28;20444;-73
2022/06/02 03:24:30;;;;;;;0.30;0.20;;;;;;;8.70;91.58;100574.97;5013979;28;20540;-73
2022/06/02 03:27:02;;;;;;;0.30;0.20;;;;;;;8.49;91.42;100570.88;5013765;28;20519;-73
2022/06/02 03:29:54;;;;;;;0.30;0.20;;;;;;;8.39;92.15;100570.16;4996717;28;20499;-73
2022/06/02 03:32:52;;;;;;;0.40;0.40;;;;;;;8.50;92.07;100581.47;5014007;28;20484;-73
2022/06/02 03:35:36;;;;;;;17.47;1.00;;;;;;;8.50;90.78;100585.88;4998337;28;20457;-73
2022/06/02 03:38:21;;;;;;;0.30;0.20;;;;;;;8.24;91.16;100588.88;5013945;28;20499;-73
2022/06/02 03:41:06;;;;;;;0.30;0.20;;;;;;;8.14;92.16;100582.84;5003613;28;20488;-73
2022/06/02 03:44:06;;;;;;;0.30;0.20;;;;;;;8.18;92.66;100595.13;5013752;28;20839;-74
2022/06/02 03:47:08;;;;;;;0.43;0.40;;;;;;;8.22;92.27;100593.31;5014220;28;20461;-73
2022/06/02 03:49:38;;;;;;;0.50;0.50;;;;;;;8.41;91.97;100594.84;5008620;28;20448;-74
2022/06/02 03:52:39;;;;;;;0.30;0.20;;;;;;;8.33;91.43;100597.56;5007730;28;20594;-74
2022/06/02 03:55:18;;;;;;;0.30;0.20;;;;;;;8.31;91.33;100606.44;4994862;28;20460;-73
2022/06/02 03:58:16;;;;;;;0.30;0.20;;;;;;;8.43;91.12;100600.97;5014127;28;20590;-74
2022/06/02 04:00:53;;;;;;;0.30;0.20;;;;;;;8.58;90.17;100602.53;5013957;28;20981;-73
2022/06/02 04:03:26;;;;;;;0.30;0.20;;;;;;;8.53;91.98;100599.97;5001813;28;20514;-74
2022/06/02 04:06:02;;;;;;;0.30;0.20;;;;;;;8.22;92.79;100604.81;5014691;28;20464;-74
2022/06/02 04:08:43;;;;;;;0.40;0.40;;;;;;;8.30;93.92;100602.03;5014488;28;20474;-74
2022/06/02 04:11:28;;;;;;;0.30;0.20;;;;;;;8.45;93.28;100607.13;5013431;28;20453;-74
2022/06/02 04:14:24;;;;;;;0.30;0.20;;;;;;;8.45;93.63;100608.91;5013139;28;20530;-74
2022/06/02 04:16:54;;;;;;;0.30;0.20;;;;;;;8.70;92.50;100604.13;5013169;28;20452;-73
2022/06/02 04:22:39;;;;;;;0.30;0.20;;;;;;;8.96;93.49;100612.53;5012854;28;20542;-73
2022/06/02 04:25:43;;;;;;;0.30;0.20;;;;;;;8.94;93.65;100616.97;5012630;28;20479;-74
2022/06/02 04:28:20;;;;;;;0.30;0.20;;;;;;;8.67;95.32;100599.75;5013140;28;20452;-73
2022/06/02 04:30:49;;;;;;;1.13;0.50;;;;;;;9.55;93.40;100615.00;5013399;28;20472;-74
2022/06/02 04:33:32;;;;;;;0.83;0.67;;;;;;;10.56;89.18;100612.00;4994908;28;20485;-75
2022/06/02 04:36:21;;;;;;;1.10;1.10;;;;;;;11.40;85.78;100615.19;4995484;28;20879;-75
2022/06/02 04:39:14;;;;;;;0.40;0.30;;;;;;;12.03;81.53;100618.78;4995608;28;20448;-75
2022/06/02 04:42:10;;;;;;;4.93;2.53;;;;;;;12.57;79.72;100615.38;5012545;28;20554;-74
2022/06/02 04:44:50;;;;;;;0.40;0.33;;;;;;;13.04;77.06;100606.69;5012408;28;20871;-75
2022/06/02 04:47:57;;;;;;;0.40;0.40;;;;;;;13.34;76.38;100617.28;5012779;28;20514;-74
2022/06/02 04:50:32;;;;;;;0.70;0.70;;;;;;;13.50;75.15;100613.16;4921469;29;20448;-74
2022/06/02 04:53:25;;;;;;;0.30;0.20;;;;;;;13.73;74.71;100614.13;5001202;28;20503;-75
2022/06/02 04:56:03;;;;;;;0.40;0.40;;;;;;;13.83;74.40;100618.19;5012718;28;20449;-75
2022/06/02 04:58:53;;;;;;;0.40;0.30;;;;;;;14.06;74.83;100612.88;5007057;28;20484;-75
2022/06/02 05:01:22;;;;;;;0.30;0.20;;;;;;;14.28;74.35;100614.75;4994762;28;20520;-75
2022/06/02 05:04:12;;;;;;;0.40;0.30;;;;;;;14.46;73.46;100604.22;5012342;28;20469;-74
2022/06/02 05:06:52;;;;;;;0.40;0.30;;;;;;;14.40;73.66;100599.09;5000471;28;20436;-74
2022/06/02 05:09:42;;;;;;;1.60;0.63;;;;;;;14.67;72.46;100607.00;5012154;28;20444;-74
2022/06/02 05:12:27;;;;;;;26.07;1.33;;;;;;;14.66;72.51;100605.22;5012334;28;20492;-74
2022/06/02 05:15:19;;;;;;;1.63;1.63;;;;;;;14.79;72.80;100611.81;5001376;28;20452;-74
2022/06/02 05:18:12;;;;;;;2.53;0.63;;;;;;;14.88;71.96;100615.94;5012021;28;20479;-74
2022/06/02 05:21:03;;;;;;;0.40;0.20;;;;;;;15.96;70.05;100601.41;4994931;28;20496;-74
2022/06/02 05:24:00;;;;;;;0.40;0.27;;;;;;;15.50;70.23;100615.09;4994811;28;21041;-74
2022/06/02 05:27:03;;;;;;;0.33;0.23;;;;;;;15.69;70.24;100611.56;5002037;28;20456;-74
2022/06/02 05:30:08;;;;;;;0.40;0.30;;;;;;;15.61;70.04;100604.78;5000707;28;20502;-74
2022/06/02 05:33:24;;;;;;;0.40;0.20;;;;;;;15.92;68.81;100620.38;4992892;28;20546;-74
2022/06/02 05:36:06;;;;;;;0.40;0.20;;;;;;;16.20;69.05;100617.31;4987963;28;20942;-74
2022/06/02 05:38:57;;;;;;;0.40;0.20;;;;;;;16.38;67.74;100623.63;5012025;28;20498;-75
2022/06/02 05:41:33;;;;;;;0.40;0.20;;;;;;;17.12;65.75;100622.66;5011906;28;20492;-75
2022/06/02 05:44:08;;;;;;;0.40;0.30;;;;;;;16.66;66.85;100628.53;4994764;28;20451;-75
2022/06/02 05:46:53;;;;;;;0.40;0.27;;;;;;;16.33;66.89;100642.63;5015049;28;20486;-74
2022/06/02 05:49:34;;;;;;;0.80;0.80;;;;;;;16.57;66.89;100627.16;5015897;28;20460;-74
2022/06/02 05:52:26;;;;;;;0.40;0.30;;;;;;;16.83;66.22;100624.09;5003395;28;20468;-75
2022/06/02 05:55:17;;;;;;;0.40;0.20;;;;;;;16.50;67.52;100640.00;4980176;28;20475;-75
2022/06/02 05:58:09;;;;;;;0.40;0.20;;;;;;;16.76;65.73;100660.28;5015341;28;20934;-75
2022/06/02 06:01:03;;;;;;;0.40;0.40;;;;;;;16.91;65.45;100657.78;5015557;28;20511;-75
2022/06/02 06:04:07;;;;;;;0.40;0.20;;;;;;;16.95;66.36;100652.19;5015219;28;20530;-75
2022/06/02 06:06:47;;;;;;;0.40;0.20;;;;;;;17.07;65.93;100659.63;5003268;28;20531;-75
2022/06/02 06:09:16;;;;;;;0.40;0.20;;;;;;;17.31;65.03;100656.69;4997679;28;20456;-75
2022/06/02 06:12:01;;;;;;;0.40;0.30;;;;;;;17.77;64.75;100656.06;5015102;28;20440;-75
2022/06/02 06:14:54;;;;;;;0.40;0.30;;;;;;;17.96;62.38;100661.38;5015176;28;20444;-75
2022/06/02 06:17:51;;;;;;;0.50;0.40;;;;;;;17.99;62.35;100671.09;5015152;28;20461;-75
2022/06/02 06:20:55;;;;;;;0.40;0.20;;;;;;;17.95;62.54;100681.13;5014765;28;20492;-75
2022/06/02 06:23:54;;;;;;;0.90;0.60;;;;;;;18.09;63.18;100669.63;5015061;28;20694;-75
2022/06/02 06:26:42;;;;;;;0.40;0.30;;;;;;;18.17;63.14;100661.16;4972200;28;20507;-75
2022/06/02 06:29:11;;;;;;;0.57;0.47;;;;;;;17.84;63.81;100661.16;5014561;28;20996;-75
2022/06/02 06:31:50;;;;;;;0.40;0.20;;;;;;;17.78;64.05;100667.69;5014680;28;20977;-75
2022/06/02 06:34:47;;;;;;;1.13;0.63;;;;;;;17.48;65.50;100664.75;5014821;28;20483;-75
2022/06/02 06:37:38;;;;;;;0.50;0.50;;;;;;;17.34;65.00;100673.50;5014587;28;20472;-75
2022/06/02 06:40:36;;;;;;;0.40;0.30;;;;;;;17.65;65.11;100666.56;5015151;28;20586;-75
2022/06/02 06:43:08;;;;;;;0.40;0.20;;;;;;;18.30;63.34;100662.25;5014347;28;20473;-75
2022/06/02 06:45:59;;;;;;;0.40;0.30;;;;;;;18.03;64.59;100659.22;5014487;28;20449;-75
2022/06/02 06:48:41;;;;;;;0.40;0.20;;;;;;;18.27;63.64;100657.91;5014514;28;20444;-75
2022/06/02 06:51:35;;;;;;;0.60;0.50;;;;;;;18.15;63.81;100665.75;5014272;28;20882;-75
2022/06/02 06:54:31;;;;;;;0.47;0.33;;;;;;;18.38;63.42;100662.69;5014676;28;20453;-75
2022/06/02 06:57:06;;;;;;;0.40;0.40;;;;;;;18.13;64.09;100654.22;5002536;28;20810;-75
2022/06/02 07:00:00;;;;;;;0.40;0.20;;;;;;;18.30;63.84;100649.66;5014098;28;20464;-75
2022/06/02 07:02:48;;;;;;;8.50;2.20;;;;;;;18.60;63.51;100649.75;5014269;28;20526;-75
2022/06/02 07:05:29;;;;;;;0.60;0.40;;;;;;;18.37;63.24;100652.03;5014356;28;20483;-75
2022/06/02 07:08:20;;;;;;;0.43;0.27;;;;;;;18.42;64.66;100660.69;5014269;28;20448;-75
2022/06/02 07:10:57;;;;;;;0.40;0.30;;;;;;;18.52;63.52;100668.19;5014422;28;20508;-75
2022/06/02 07:13:46;;;;;;;0.40;0.20;;;;;;;18.85;63.08;100670.84;5014203;28;20878;-75
2022/06/02 07:16:18;;;;;;;0.43;0.30;;;;;;;19.40;61.42;100661.38;5001292;28;20988;-75
2022/06/02 07:18:52;;;;;;;0.50;0.40;;;;;;;19.12;61.35;100676.47;5014004;28;20524;-75
2022/06/02 07:21:33;;;;;;;0.67;0.67;;;;;;;19.57;60.46;100665.78;5013992;28;20492;-75
2022/06/02 07:24:15;;;;;;;0.73;0.73;;;;;;;19.44;59.67;100663.78;5013946;28;20448;-75
2022/06/02 07:26:45;;;;;;;1.10;0.53;;;;;;;19.57;58.64;100666.66;4996387;28;20510;-75
2022/06/02 07:29:30;;;;;;;0.40;0.30;;;;;;;19.48;57.28;100667.19;5001293;28;20749;-75
2022/06/02 07:32:15;;;;;;;0.40;0.30;;;;;;;19.47;55.96;100668.16;4996515;28;20997;-75
2022/06/02 07:35:19;;;;;;;7.77;0.93;;;;;;;19.36;56.63;100665.22;5013837;28;20480;-75
2022/06/02 07:37:54;;;;;;;1.17;1.07;;;;;;;19.15;57.39;100670.91;5004832;28;20463;-75
2022/06/02 07:40:50;;;;;;;0.50;0.47;;;;;;;18.61;58.70;100667.66;5013740;28;20445;-75
2022/06/02 07:43:20;;;;;;;0.83;0.83;;;;;;;19.65;57.07;100656.28;5013454;28;20476;-75
2022/06/02 07:45:59;;;;;;;0.40;0.30;;;;;;;19.79;57.05;100653.63;5013540;28;20455;-75
2022/06/02 07:48:57;;;;;;;0.50;0.40;;;;;;;19.89;55.90;100651.25;5013354;28;20954;-75
2022/06/02 07:51:31;;;;;;;0.40;0.30;;;;;;;19.62;54.41;100652.94;5013389;28;20479;-75
2022/06/02 07:54:18;;;;;;;0.40;0.20;;;;;;;20.50;54.26;100657.34;5013229;28;20463;-75
2022/06/02 07:57:07;;;;;;;1.23;0.70;;;;;;;19.11;53.62;100653.19;4996042;28;20826;-75
2022/06/02 08:00:09;;;;;;;0.63;0.63;;;;;;;19.45;54.83;100651.19;5010774;28;20469;-75
2022/06/02 08:03:05;;;;;;;0.50;0.30;;;;;;;19.10;55.55;100653.28;5013356;28;20980;-75
2022/06/02 08:05:44;;;;;;;0.40;0.20;;;;;;;18.90;54.29;100649.00;5013341;28;20479;-75
2022/06/02 08:08:13;;;;;;;0.43;0.30;;;;;;;19.16;52.64;100658.28;5000014;28;20460;-75
2022/06/02 08:10:47;;;;;;;0.60;0.60;;;;;;;19.34;47.38;100653.66;4995165;28;20488;-75
2022/06/02 08:13:36;;;;;;;0.40;0.30;;;;;;;19.67;49.11;100654.38;5013110;28;20476;-75
2022/06/02 08:16:25;;;;;;;0.40;0.30;;;;;;;19.05;48.13;100661.63;4995356;28;20453;-75
2022/06/02 08:19:11;;;;;;;0.50;0.30;;;;;;;19.03;50.77;100655.44;5012939;28;20511;-76
2022/06/02 08:21:53;;;;;;;0.93;0.93;;;;;;;19.04;50.12;100659.00;5012993;28;20531;-75
2022/06/02 08:24:55;;;;;;;2.83;0.93;;;;;;;20.16;47.56;100654.06;4999820;28;20507;-75
2022/06/02 08:27:52;;;;;;;0.40;0.20;;;;;;;20.24;48.53;100667.94;5012311;28;20479;-75
2022/06/02 08:30:18;;;;;;;0.60;0.50;;;;;;;19.80;49.24;100660.75;5008873;28;20499;-75
2022/06/02 08:32:50;;;;;;;0.40;0.30;;;;;;;19.66;48.73;100660.72;5012435;28;20473;-75
2022/06/02 08:35:22;;;;;;;0.40;0.30;;;;;;;19.67;49.30;100658.91;5012945;28;20437;-75
2022/06/02 08:38:21;;;;;;;0.40;0.20;;;;;;;20.09;48.75;100652.69;5012388;28;20460;-75
2022/06/02 08:41:28;;;;;;;0.57;0.57;;;;;;;19.83;49.89;100657.00;5002837;28;20487;-75
2022/06/02 08:44:27;;;;;;;0.40;0.20;;;;;;;19.93;49.37;100662.72;5000688;28;20542;-75
2022/06/02 08:47:18;;;;;;;0.40;0.20;;;;;;;20.56;49.15;100652.44;4985875;28;20579;-75
2022/06/02 08:50:22;;;;;;;0.40;0.30;;;;;;;20.12;49.71;100647.09;5012617;28;20515;-75
2022/06/02 08:53:10;;;;;;;0.43;0.33;;;;;;;20.64;48.66;100650.09;4994994;28;20468;-75
2022/06/02 08:55:43;;;;;;;0.50;0.50;;;;;;;20.52;50.65;100655.41;5012472;28;20503;-75
2022/06/02 08:58:51;;;;;;;0.80;0.77;;;;;;;20.36;49.57;100650.97;5012281;28;20448;-75
2022/06/02 09:01:26;;;;;;;0.50;0.50;;;;;;;19.95;50.03;100650.00;4995102;28;20496;-75
2022/06/02 09:04:12;;;;;;;2.30;2.20;;;;;;;19.96;50.92;100658.00;5012595;28;20518;-75
2022/06/02 09:07:04;;;;;;;0.60;0.50;;;;;;;20.46;50.63;100655.81;5000563;28;20936;-75
2022/06/02 09:10:02;;;;;;;0.50;0.40;;;;;;;19.68;52.59;100663.31;4999980;28;20547;-75
2022/06/02 09:12:50;;;;;;;0.60;0.60;;;;;;;19.65;53.23;100656.28;5012185;28;20460;-75
2022/06/02 09:15:41;;;;;;;0.87;0.87;;;;;;;20.36;51.31;100661.78;5012063;28;20827;-75
2022/06/02 09:18:36;;;;;;;0.40;0.30;;;;;;;20.42;50.95;100663.22;5001359;28;20957;-75
2022/06/02 09:21:28;;;;;;;0.60;0.60;;;;;;;20.38;50.39;100665.22;5004384;28;20568;-75
2022/06/02 09:24:02;;;;;;;0.50;0.43;;;;;;;20.01;50.18;100671.19;5016050;28;20476;-75
2022/06/02 09:26:58;;;;;;;0.40;0.30;;;;;;;19.92;50.27;100669.94;5016080;28;20522;-75
2022/06/02 09:29:30;;;;;;;0.70;0.70;;;;;;;19.41;50.72;100669.38;5016029;28;20515;-75
2022/06/02 09:32:14;;;;;;;0.70;0.70;;;;;;;20.11;49.12;100670.53;5015670;28;20468;-75
2022/06/02 09:34:54;;;;;;;0.50;0.40;;;;;;;20.10;49.32;100673.31;5016216;28;20452;-75
2022/06/02 09:37:39;;;;;;;0.70;0.67;;;;;;;20.08;48.97;100669.84;5003588;28;20445;-75
2022/06/02 09:40:37;;;;;;;0.50;0.40;;;;;;;20.40;48.73;100660.59;5016232;28;20535;-75
2022/06/02 09:43:22;;;;;;;0.40;0.20;;;;;;;20.99;48.26;100660.47;5015678;28;20948;-75
2022/06/02 09:46:21;;;;;;;0.50;0.30;;;;;;;21.33;47.25;100650.97;5015766;28;20794;-75
2022/06/02 09:49:36;;;;;;;0.40;0.30;;;;;;;20.26;49.22;100665.13;5006957;28;20471;-75
2022/06/02 09:52:24;;;;;;;2.53;1.80;;;;;;;19.74;50.09;100671.06;5003860;28;20472;-75
2022/06/02 09:54:53;;;;;;;1.47;1.27;;;;;;;20.25;49.98;100666.97;5015635;28;20456;-75
2022/06/02 10:00:32;;;;;;;0.40;0.20;;;;;;;20.61;47.37;100652.13;5004435;28;20530;-75
2022/06/02 10:03:36;;;;;;;0.40;0.30;;;;;;;20.65;47.67;100656.38;4997978;28;20492;-75
2022/06/02 10:06:12;;;;;;;6.43;1.17;;;;;;;20.64;48.49;100665.44;5015493;28;20960;-75
2022/06/02 10:08:54;;;;;;;0.40;0.20;;;;;;;20.65;47.40;100661.78;5015476;28;20452;-75
2022/06/02 10:11:35;;;;;;;2.67;2.57;;;;;;;20.59;47.45;100654.06;5002969;28;20459;-75
2022/06/02 10:14:12;;;;;;;0.60;0.60;;;;;;;20.34;46.81;100660.13;5015715;28;20629;-75
2022/06/02 10:16:48;;;;;;;0.90;0.90;;;;;;;20.88;46.81;100655.75;5015917;28;20451;-75
2022/06/02 10:19:29;;;;;;;9.07;1.07;;;;;;;20.28;48.54;100655.97;5015476;28;20463;-75
2022/06/02 10:22:07;;;;;;;0.80;0.73;;;;;;;19.86;48.59;100659.50;5014954;28;20492;-75
2022/06/02 10:24:59;;;;;;;0.50;0.40;;;;;;;20.25;48.02;100653.47;5015600;28;20448;-75
2022/06/02 10:27:37;;;;;;;1.07;1.07;;;;;;;19.81;48.84;100653.53;5015186;28;20743;-75
2022/06/02 10:30:58;;;;;;;0.60;0.60;;;;;;;20.37;47.29;100659.94;4997803;28;20493;-75
2022/06/02 10:34:01;;;;;;;0.50;0.40;;;;;;;20.04;48.69;100660.22;4958425;28;20937;-75
2022/06/02 10:37:02;;;;;;;2.20;2.10;;;;;;;20.60;47.51;100655.81;4954391;28;21044;-75
2022/06/02 10:39:48;;;;;;;2.00;1.90;;;;;;;20.33;48.68;100658.41;5015184;28;20449;-75
2022/06/02 10:42:32;;;;;;;0.40;0.30;;;;;;;20.73;47.40;100664.00;5003485;28;20570;-75
2022/06/02 10:45:17;;;;;;;0.50;0.50;;;;;;;20.43;47.01;100658.72;5014918;28;20465;-75
2022/06/02 10:47:55;;;;;;;0.40;0.20;;;;;;;20.33;47.37;100656.56;4997699;28;20507;-75
2022/06/02 10:50:40;;;;;;;1.63;1.60;;;;;;;20.88;46.21;100647.66;5002449;28;20926;-75
2022/06/02 10:53:31;;;;;;;0.40;0.20;;;;;;;20.64;47.35;100647.41;4997018;28;20469;-75
2022/06/02 10:56:20;;;;;;;0.40;0.20;;;;;;;21.35;45.73;100645.47;5014744;28;20449;-76
2022/06/02 10:59:22;;;;;;;0.40;0.30;;;;;;;21.21;47.42;100649.06;4997421;28;20453;-76
2022/06/02 11:01:51;;;;;;;2.40;0.87;;;;;;;20.58;46.61;100652.34;4961614;28;20546;-75
2022/06/02 11:04:40;;;;;;;0.40;0.20;;;;;;;20.73;45.98;100639.69;5016068;28;20452;-76
2022/06/02 11:07:16;;;;;;;0.50;0.40;;;;;;;21.12;45.81;100630.78;5016048;28;20452;-75
2022/06/02 11:10:04;;;;;;;0.50;0.40;;;;;;;21.03;44.37;100643.06;5002155;28;20463;-75
2022/06/02 11:12:44;;;;;;;0.60;0.50;;;;;;;20.77;45.22;100649.31;5014324;28;20527;-75
2022/06/02 11:15:42;;;;;;;0.40;0.30;;;;;;;21.21;45.01;100636.41;5014453;28;20507;-75
2022/06/02 11:18:36;;;;;;;0.50;0.50;;;;;;;21.12;44.21;100644.28;5004156;28;20449;-75
2022/06/02 11:21:40;;;;;;;0.50;0.40;;;;;;;21.09;44.27;100629.13;5001549;28;20511;-75
2022/06/02 11:24:46;;;;;;;0.40;0.20;;;;;;;21.32;44.31;100621.34;5014078;28;20514;-75
2022/06/02 11:27:37;;;;;;;0.40;0.20;;;;;;;21.41;44.88;100627.00;4996773;28;20933;-76
2022/06/02 11:30:08;;;;;;;0.50;0.37;;;;;;;21.48;43.45;100619.31;5013895;28;20444;-75
2022/06/02 11:33:08;;;;;;;0.40;0.30;;;;;;;21.38;43.09;100613.69;4996510;28;20472;-75
2022/06/02 11:35:44;;;;;;;0.50;0.40;;;;;;;20.95;42.63;100619.22;4941713;28;20448;-75
2022/06/02 11:38:29;;;;;;;0.50;0.50;;;;;;;20.66;43.12;100625.69;5008219;28;20444;-75
2022/06/02 11:41:14;;;;;;;0.63;0.63;;;;;;;21.32;41.65;100619.50;5013550;28;21032;-75
2022/06/02 11:43:46;;;;;;;0.50;0.50;;;;;;;21.54;40.00;100608.09;5013563;28;20534;-75
2022/06/02 11:46:33;;;;;;;0.40;0.20;;;;;;;21.19;41.20;100619.44;4996189;28;20453;-75
2022/06/02 11:49:28;;;;;;;0.40;0.30;;;;;;;20.86;40.10;100624.41;4996488;28;20448;-75
2022/06/02 11:52:12;;;;;;;0.40;0.20;;;;;;;21.08;39.63;100613.00;5013717;28;20468;-75
2022/06/02 11:55:29;;;;;;;0.40;0.30;;;;;;;21.82;38.13;100609.75;4996121;28;20457;-75
2022/06/02 11:58:33;;;;;;;0.40;0.20;;;;;;;22.14;37.55;100602.94;4979960;28;20515;-75
2022/06/02 12:01:27;;;;;;;0.50;0.30;;;;;;;21.38;40.26;100605.56;5013411;28;20510;-75
2022/06/02 12:04:15;;;;;;;0.40;0.30;;;;;;;22.50;39.16;100595.84;5013200;28;20884;-75
2022/06/02 12:07:18;;;;;;;0.67;0.67;;;;;;;21.42;39.67;100593.56;5002348;28;20452;-75
2022/06/02 12:10:20;;;;;;;0.40;0.30;;;;;;;22.13;38.53;100586.78;4946607;28;20463;-75
2022/06/02 12:12:47;;;;;;;0.40;0.30;;;;;;;21.80;39.52;100581.91;5013261;28;20464;-75
2022/06/02 12:15:33;;;;;;;0.83;0.83;;;;;;;22.01;38.89;100582.22;5013359;28;20507;-75
2022/06/02 12:18:09;;;;;;;0.40;0.20;;;;;;;22.39;37.64;100574.06;5001433;28;20543;-75
2022/06/02 12:20:55;;;;;;;0.50;0.30;;;;;;;21.75;40.05;100578.66;5013367;28;20575;-75
2022/06/02 12:23:42;;;;;;;0.40;0.20;;;;;;;22.30;37.66;100569.31;4995713;28;21008;-75
2022/06/02 12:26:26;;;;;;;0.47;0.30;;;;;;;22.23;37.41;100562.63;4974621;28;20472;-75
2022/06/02 12:29:41;;;;;;;0.40;0.20;;;;;;;21.96;35.42;100563.59;5013101;28;20448;-76
2022/06/02 12:32:42;;;;;;;0.87;0.80;;;;;;;21.62;36.83;100567.81;4976427;28;20539;-75
2022/06/02 12:35:27;;;;;;;0.50;0.50;;;;;;;22.27;35.45;100562.28;5012889;28;20448;-75
2022/06/02 12:38:08;;;;;;;0.40;0.30;;;;;;;22.54;37.33;100555.81;5012885;28;20993;-75
2022/06/02 12:40:52;;;;;;;0.40;0.20;;;;;;;22.75;37.05;100555.09;5001171;28;20572;-77
2022/06/02 12:43:53;;;;;;;0.40;0.20;;;;;;;23.35;36.31;100551.41;5013342;28;20512;-78
2022/06/02 12:46:32;;;;;;;0.50;0.40;;;;;;;22.56;36.60;100554.72;4946978;28;20516;-78
2022/06/02 12:49:10;;;;;;;0.60;0.40;;;;;;;22.59;36.70;100553.63;4996475;28;20468;-78
2022/06/02 12:51:57;;;;;;;2.20;0.60;;;;;;;22.84;36.89;100553.56;5013471;28;20457;-77
2022/06/02 12:54:47;;;;;;;0.47;0.30;;;;;;;22.79;36.91;100546.72;5013628;28;20452;-77
2022/06/02 12:57:39;;;;;;;0.50;0.40;;;;;;;22.36;37.70;100547.22;5013392;28;20457;-77
2022/06/02 13:00:24;;;;;;;0.50;0.30;;;;;;;22.27;38.35;100551.44;4983557;28;20480;-77
2022/06/02 13:03:44;;;;;;;0.40;0.20;;;;;;;22.20;38.04;100541.16;4995813;28;20496;-77
2022/06/02 13:06:38;;;;;;;0.63;0.63;;;;;;;22.55;38.24;100536.72;5013344;28;20457;-77